sensor_id;sensor_type;location;lat;lon;timestamp;noise_LAeq;noise_LA_min;noise_LA_max;noise_LA01;noise_LA95
69619;Laerm;57653;51.434;5.984;2022-11-15T00:00:10;34.28;31.36;42.21;;
69619;Laerm;57653;51.434;5.984;2022-11-15T00:00:20;32.70;31.62;33.94;;
69619;Laerm;57653;51.434;5.984;2022-11-15T00:00:30;32.69;31.71;33.69;;
69619;Laerm;57653;51.434;5.984;2022-11-15T00:00:41;32.56;31.32;33.69;;
69619;Laerm;57653;51.434;5.984;2022-11-15T00:00:51;32.57;31.39;33.57;;
69619;Laerm;57653;51.434;5.984;2022-11-15T00:01:01;32.52;31.12;33.60;;
69619;Laerm;57653;51.434;5.984;2022-11-15T00:01:16;32.55;31.35;33.61;;
69619;Laerm;57653;51.434;5.984;2022-11-15T00:01:27;32.60;31.20;33.44;;
69619;Laerm;57653;51.434;5.984;2022-11-15T00:01:38;32.59;31.54;33.76;;
69619;Laerm;57653;51.434;5.984;2022-11-15T00:01:48;32.54;31.54;33.47;;
69619;Laerm;57653;51.434;5.984;2022-11-15T00:01:58;32.57;31.44;33.53;;
69619;Laerm;57653;51.434;5.984;2022-11-15T00:02:09;32.48;31.48;33.42;;
69619;Laerm;57653;51.434;5.984;2022-11-15T00:02:19;32.48;30.89;33.58;;
69619;Laerm;57653;51.434;5.984;2022-11-15T00:02:29;32.50;31.29;33.54;;
69619;Laerm;57653;51.434;5.984;2022-11-15T00:02:39;32.44;31.36;33.40;;
69619;Laerm;57653;51.434;5.984;2022-11-15T00:02:51;32.49;31.45;33.63;;
69619;Laerm;57653;51.434;5.984;2022-11-15T00:03:02;32.47;31.48;33.76;;
69619;Laerm;57653;51.434;5.984;2022-11-15T00:03:16;32.53;31.41;33.51;;
69619;Laerm;57653;51.434;5.984;2022-11-15T00:03:27;32.47;31.11;33.65;;
69619;Laerm;57653;51.434;5.984;2022-11-15T00:03:37;32.46;31.58;34.38;;
69619;Laerm;57653;51.434;5.984;2022-11-15T00:03:50;32.43;31.24;33.58;;
69619;Laerm;57653;51.434;5.984;2022-11-15T00:04:00;32.47;31.50;33.47;;
69619;Laerm;57653;51.434;5.984;2022-11-15T00:04:11;32.43;31.41;33.42;;
69619;Laerm;57653;51.434;5.984;2022-11-15T00:04:21;32.43;30.61;33.47;;
69619;Laerm;57653;51.434;5.984;2022-11-15T00:04:31;32.44;31.48;33.51;;
69619;Laerm;57653;51.434;5.984;2022-11-15T00:04:42;32.47;31.36;33.91;;
69619;Laerm;57653;51.434;5.984;2022-11-15T00:04:52;32.39;31.22;33.70;;
69619;Laerm;57653;51.434;5.984;2022-11-15T00:05:02;32.41;31.45;33.26;;
69619;Laerm;57653;51.434;5.984;2022-11-15T00:05:13;32.47;31.26;33.43;;
69619;Laerm;57653;51.434;5.984;2022-11-15T00:05:23;32.76;31.53;41.27;;
69619;Laerm;57653;51.434;5.984;2022-11-15T00:05:34;32.46;31.55;33.42;;
69619;Laerm;57653;51.434;5.984;2022-11-15T00:05:45;32.46;31.50;33.41;;
69619;Laerm;57653;51.434;5.984;2022-11-15T00:06:00;32.44;31.49;33.31;;
69619;Laerm;57653;51.434;5.984;2022-11-15T00:06:11;32.46;31.31;33.41;;
69619;Laerm;57653;51.434;5.984;2022-11-15T00:06:21;32.52;31.33;33.66;;
69619;Laerm;57653;51.434;5.984;2022-11-15T00:06:32;32.48;31.38;33.49;;
69619;Laerm;57653;51.434;5.984;2022-11-15T00:06:42;32.40;31.33;33.51;;
69619;Laerm;57653;51.434;5.984;2022-11-15T00:06:52;32.44;31.39;33.61;;
69619;Laerm;57653;51.434;5.984;2022-11-15T00:07:03;32.47;31.29;33.47;;
69619;Laerm;57653;51.434;5.984;2022-11-15T00:07:13;32.52;31.45;33.67;;
69619;Laerm;57653;51.434;5.984;2022-11-15T00:07:23;32.50;31.39;33.46;;
69619;Laerm;57653;51.434;5.984;2022-11-15T00:07:33;32.46;31.44;33.49;;
69619;Laerm;57653;51.434;5.984;2022-11-15T00:07:44;32.45;30.63;33.67;;
69619;Laerm;57653;51.434;5.984;2022-11-15T00:07:54;32.53;31.35;33.64;;
69619;Laerm;57653;51.434;5.984;2022-11-15T00:08:04;32.53;31.48;33.69;;
69619;Laerm;57653;51.434;5.984;2022-11-15T00:08:14;32.46;31.42;33.66;;
69619;Laerm;57653;51.434;5.984;2022-11-15T00:08:25;32.48;31.06;33.77;;
69619;Laerm;57653;51.434;5.984;2022-11-15T00:08:38;32.45;31.40;33.46;;
69619;Laerm;57653;51.434;5.984;2022-11-15T00:08:48;32.49;31.61;33.65;;
69619;Laerm;57653;51.434;5.984;2022-11-15T00:08:59;32.52;31.44;33.43;;
69619;Laerm;57653;51.434;5.984;2022-11-15T00:09:09;32.53;30.94;33.69;;
69619;Laerm;57653;51.434;5.984;2022-11-15T00:09:20;32.62;31.56;33.67;;
69619;Laerm;57653;51.434;5.984;2022-11-15T00:09:30;32.81;31.64;33.97;;
69619;Laerm;57653;51.434;5.984;2022-11-15T00:09:40;33.06;31.58;36.89;;
69619;Laerm;57653;51.434;5.984;2022-11-15T00:09:50;33.01;31.79;34.30;;
69619;Laerm;57653;51.434;5.984;2022-11-15T00:10:01;32.72;31.76;33.86;;
69619;Laerm;57653;51.434;5.984;2022-11-15T00:10:11;32.55;31.23;33.52;;
69619;Laerm;57653;51.434;5.984;2022-11-15T00:10:21;32.49;31.28;33.93;;
69619;Laerm;57653;51.434;5.984;2022-11-15T00:10:32;32.87;31.81;34.14;;
69619;Laerm;57653;51.434;5.984;2022-11-15T00:10:42;32.67;31.48;34.16;;
69619;Laerm;57653;51.434;5.984;2022-11-15T00:10:56;32.56;31.54;33.55;;
69619;Laerm;57653;51.434;5.984;2022-11-15T00:11:08;32.65;31.17;34.02;;
69619;Laerm;57653;51.434;5.984;2022-11-15T00:11:19;37.92;31.94;45.47;;
69619;Laerm;57653;51.434;5.984;2022-11-15T00:11:30;59.39;45.22;63.46;;
69619;Laerm;57653;51.434;5.984;2022-11-15T00:11:40;61.03;59.23;62.75;;
69619;Laerm;57653;51.434;5.984;2022-11-15T00:11:51;59.40;54.04;63.46;;
69619;Laerm;57653;51.434;5.984;2022-11-15T00:12:01;47.91;35.27;55.32;;
69619;Laerm;57653;51.434;5.984;2022-11-15T00:12:11;35.75;33.01;38.21;;
69619;Laerm;57653;51.434;5.984;2022-11-15T00:12:22;33.64;32.25;35.56;;
69619;Laerm;57653;51.434;5.984;2022-11-15T00:12:32;33.17;32.23;34.15;;
69619;Laerm;57653;51.434;5.984;2022-11-15T00:12:42;32.87;31.65;34.22;;
69619;Laerm;57653;51.434;5.984;2022-11-15T00:12:52;32.74;31.72;33.90;;
69619;Laerm;57653;51.434;5.984;2022-11-15T00:13:09;32.72;31.06;33.90;;
69619;Laerm;57653;51.434;5.984;2022-11-15T00:13:20;32.66;31.08;34.11;;
69619;Laerm;57653;51.434;5.984;2022-11-15T00:13:30;32.57;31.26;33.51;;
69619;Laerm;57653;51.434;5.984;2022-11-15T00:13:41;32.74;31.34;34.26;;
69619;Laerm;57653;51.434;5.984;2022-11-15T00:13:54;32.54;31.56;33.57;;
69619;Laerm;57653;51.434;5.984;2022-11-15T00:14:04;32.46;31.35;33.67;;
69619;Laerm;57653;51.434;5.984;2022-11-15T00:14:14;32.42;30.80;33.64;;
69619;Laerm;57653;51.434;5.984;2022-11-15T00:14:25;32.47;31.41;33.36;;
69619;Laerm;57653;51.434;5.984;2022-11-15T00:14:35;32.44;31.25;33.56;;
69619;Laerm;57653;51.434;5.984;2022-11-15T00:14:45;32.43;31.38;33.34;;
69619;Laerm;57653;51.434;5.984;2022-11-15T00:14:55;32.76;31.33;41.19;;
69619;Laerm;57653;51.434;5.984;2022-11-15T00:15:06;32.46;31.32;33.46;;
69619;Laerm;57653;51.434;5.984;2022-11-15T00:15:16;32.49;31.28;33.32;;
69619;Laerm;57653;51.434;5.984;2022-11-15T00:15:27;32.48;31.41;37.63;;
69619;Laerm;57653;51.434;5.984;2022-11-15T00:15:37;32.50;31.30;33.84;;
69619;Laerm;57653;51.434;5.984;2022-11-15T00:15:48;32.41;31.40;33.59;;
69619;Laerm;57653;51.434;5.984;2022-11-15T00:15:59;32.41;31.38;33.34;;
69619;Laerm;57653;51.434;5.984;2022-11-15T00:16:10;32.44;31.50;33.77;;
69619;Laerm;57653;51.434;5.984;2022-11-15T00:16:21;32.48;31.35;34.00;;
69619;Laerm;57653;51.434;5.984;2022-11-15T00:16:31;32.49;31.31;33.51;;
69619;Laerm;57653;51.434;5.984;2022-11-15T00:16:41;32.48;31.56;33.58;;
69619;Laerm;57653;51.434;5.984;2022-11-15T00:16:52;32.51;31.41;33.68;;
69619;Laerm;57653;51.434;5.984;2022-11-15T00:17:02;32.54;31.41;33.85;;
69619;Laerm;57653;51.434;5.984;2022-11-15T00:17:12;32.52;31.38;33.57;;
69619;Laerm;57653;51.434;5.984;2022-11-15T00:17:22;32.45;31.34;33.50;;
69619;Laerm;57653;51.434;5.984;2022-11-15T00:17:33;32.47;31.28;33.47;;
69619;Laerm;57653;51.434;5.984;2022-11-15T00:17:43;32.57;31.57;33.65;;
69619;Laerm;57653;51.434;5.984;2022-11-15T00:17:53;32.55;31.34;33.70;;
69619;Laerm;57653;51.434;5.984;2022-11-15T00:18:04;32.56;31.60;33.91;;
69619;Laerm;57653;51.434;5.984;2022-11-15T00:18:15;32.95;31.83;34.05;;
69619;Laerm;57653;51.434;5.984;2022-11-15T00:18:25;32.68;31.48;33.98;;
69619;Laerm;57653;51.434;5.984;2022-11-15T00:18:37;32.74;31.65;34.03;;
69619;Laerm;57653;51.434;5.984;2022-11-15T00:18:47;32.56;31.34;33.66;;
69619;Laerm;57653;51.434;5.984;2022-11-15T00:18:58;32.56;31.25;33.95;;
69619;Laerm;57653;51.434;5.984;2022-11-15T00:19:08;32.53;31.32;33.74;;
69619;Laerm;57653;51.434;5.984;2022-11-15T00:19:18;32.60;31.68;33.50;;
69619;Laerm;57653;51.434;5.984;2022-11-15T00:19:29;32.42;31.38;33.38;;
69619;Laerm;57653;51.434;5.984;2022-11-15T00:19:39;32.44;31.29;33.48;;
69619;Laerm;57653;51.434;5.984;2022-11-15T00:19:49;32.48;31.56;33.51;;
69619;Laerm;57653;51.434;5.984;2022-11-15T00:19:59;32.49;31.39;33.39;;
69619;Laerm;57653;51.434;5.984;2022-11-15T00:20:10;32.50;31.48;33.82;;
69619;Laerm;57653;51.434;5.984;2022-11-15T00:20:21;32.48;31.52;33.48;;
69619;Laerm;57653;51.434;5.984;2022-11-15T00:20:33;32.48;31.29;33.43;;
69619;Laerm;57653;51.434;5.984;2022-11-15T00:20:43;32.42;31.10;33.60;;
69619;Laerm;57653;51.434;5.984;2022-11-15T00:20:54;32.45;31.42;33.46;;
69619;Laerm;57653;51.434;5.984;2022-11-15T00:21:06;32.44;31.25;33.43;;
69619;Laerm;57653;51.434;5.984;2022-11-15T00:21:17;32.46;31.56;33.57;;
69619;Laerm;57653;51.434;5.984;2022-11-15T00:21:27;32.42;31.50;33.28;;
69619;Laerm;57653;51.434;5.984;2022-11-15T00:21:37;32.47;31.42;33.51;;
69619;Laerm;57653;51.434;5.984;2022-11-15T00:21:48;32.48;31.39;33.40;;
69619;Laerm;57653;51.434;5.984;2022-11-15T00:21:58;32.47;31.38;33.75;;
69619;Laerm;57653;51.434;5.984;2022-11-15T00:22:08;32.48;31.08;33.64;;
69619;Laerm;57653;51.434;5.984;2022-11-15T00:22:18;32.48;31.32;33.55;;
69619;Laerm;57653;51.434;5.984;2022-11-15T00:22:32;32.49;30.95;33.64;;
69619;Laerm;57653;51.434;5.984;2022-11-15T00:22:43;32.47;31.27;33.66;;
69619;Laerm;57653;51.434;5.984;2022-11-15T00:22:53;32.45;31.47;33.39;;
69619;Laerm;57653;51.434;5.984;2022-11-15T00:23:04;32.40;31.36;33.18;;
69619;Laerm;57653;51.434;5.984;2022-11-15T00:23:14;32.37;31.29;33.42;;
69619;Laerm;57653;51.434;5.984;2022-11-15T00:23:24;32.42;31.33;33.29;;
69619;Laerm;57653;51.434;5.984;2022-11-15T00:23:35;32.41;31.42;33.49;;
69619;Laerm;57653;51.434;5.984;2022-11-15T00:23:45;32.43;31.45;33.36;;
69619;Laerm;57653;51.434;5.984;2022-11-15T00:23:55;32.47;31.58;33.36;;
69619;Laerm;57653;51.434;5.984;2022-11-15T00:24:05;32.43;31.31;33.44;;
69619;Laerm;57653;51.434;5.984;2022-11-15T00:24:16;32.42;31.27;33.33;;
69619;Laerm;57653;51.434;5.984;2022-11-15T00:24:26;32.48;31.44;33.45;;
69619;Laerm;57653;51.434;5.984;2022-11-15T00:24:36;32.49;31.24;33.51;;
69619;Laerm;57653;51.434;5.984;2022-11-15T00:24:46;32.53;31.42;33.53;;
69619;Laerm;57653;51.434;5.984;2022-11-15T00:24:57;32.65;31.32;33.62;;
69619;Laerm;57653;51.434;5.984;2022-11-15T00:25:07;33.02;31.64;34.85;;
69619;Laerm;57653;51.434;5.984;2022-11-15T00:25:18;33.08;31.91;34.48;;
69619;Laerm;57653;51.434;5.984;2022-11-15T00:25:28;32.91;31.78;34.37;;
69619;Laerm;57653;51.434;5.984;2022-11-15T00:25:38;32.66;31.62;33.64;;
69619;Laerm;57653;51.434;5.984;2022-11-15T00:25:55;32.60;31.66;33.85;;
69619;Laerm;57653;51.434;5.984;2022-11-15T00:26:05;32.87;31.56;33.95;;
69619;Laerm;57653;51.434;5.984;2022-11-15T00:26:15;32.60;31.43;33.53;;
69619;Laerm;57653;51.434;5.984;2022-11-15T00:26:26;32.65;31.59;33.71;;
69619;Laerm;57653;51.434;5.984;2022-11-15T00:26:36;33.72;31.53;38.49;;
69619;Laerm;57653;51.434;5.984;2022-11-15T00:26:46;56.69;37.50;64.56;;
69619;Laerm;57653;51.434;5.984;2022-11-15T00:26:57;63.60;60.92;66.52;;
69619;Laerm;57653;51.434;5.984;2022-11-15T00:27:07;62.60;60.29;65.09;;
69619;Laerm;57653;51.434;5.984;2022-11-15T00:27:17;58.55;39.37;65.88;;
69619;Laerm;57653;51.434;5.984;2022-11-15T00:27:27;37.12;34.45;41.79;;
69619;Laerm;57653;51.434;5.984;2022-11-15T00:27:38;34.81;32.96;36.95;;
69619;Laerm;57653;51.434;5.984;2022-11-15T00:27:48;33.68;32.23;35.24;;
69619;Laerm;57653;51.434;5.984;2022-11-15T00:27:59;33.04;31.29;34.38;;
69619;Laerm;57653;51.434;5.984;2022-11-15T00:28:09;32.82;31.79;35.68;;
69619;Laerm;57653;51.434;5.984;2022-11-15T00:28:19;32.77;31.68;33.68;;
69619;Laerm;57653;51.434;5.984;2022-11-15T00:28:30;32.63;31.38;33.71;;
69619;Laerm;57653;51.434;5.984;2022-11-15T00:28:41;32.57;31.37;33.79;;
69619;Laerm;57653;51.434;5.984;2022-11-15T00:28:51;32.48;31.19;33.49;;
69619;Laerm;57653;51.434;5.984;2022-11-15T00:29:02;32.49;31.16;33.40;;
69619;Laerm;57653;51.434;5.984;2022-11-15T00:29:12;32.51;31.35;33.92;;
69619;Laerm;57653;51.434;5.984;2022-11-15T00:29:22;32.46;31.02;33.60;;
69619;Laerm;57653;51.434;5.984;2022-11-15T00:29:32;32.48;31.36;33.74;;
69619;Laerm;57653;51.434;5.984;2022-11-15T00:29:43;32.47;31.14;33.76;;
69619;Laerm;57653;51.434;5.984;2022-11-15T00:29:53;32.53;31.46;33.77;;
69619;Laerm;57653;51.434;5.984;2022-11-15T00:30:03;32.49;31.48;33.70;;
69619;Laerm;57653;51.434;5.984;2022-11-15T00:30:14;32.45;31.39;33.61;;
69619;Laerm;57653;51.434;5.984;2022-11-15T00:30:24;32.41;31.23;33.33;;
69619;Laerm;57653;51.434;5.984;2022-11-15T00:30:34;32.48;31.37;33.35;;
69619;Laerm;57653;51.434;5.984;2022-11-15T00:30:45;32.43;31.50;33.45;;
69619;Laerm;57653;51.434;5.984;2022-11-15T00:31:05;32.44;31.28;33.48;;
69619;Laerm;57653;51.434;5.984;2022-11-15T00:31:15;32.43;31.26;33.40;;
69619;Laerm;57653;51.434;5.984;2022-11-15T00:31:26;32.41;31.38;33.28;;
69619;Laerm;57653;51.434;5.984;2022-11-15T00:31:36;32.40;31.03;33.24;;
69619;Laerm;57653;51.434;5.984;2022-11-15T00:31:46;32.43;31.43;33.35;;
69619;Laerm;57653;51.434;5.984;2022-11-15T00:31:56;32.43;31.23;33.56;;
69619;Laerm;57653;51.434;5.984;2022-11-15T00:32:07;34.91;31.24;45.37;;
69619;Laerm;57653;51.434;5.984;2022-11-15T00:32:17;32.34;31.25;33.38;;
69619;Laerm;57653;51.434;5.984;2022-11-15T00:32:30;32.37;31.30;33.46;;
69619;Laerm;57653;51.434;5.984;2022-11-15T00:32:43;32.40;31.10;33.35;;
69619;Laerm;57653;51.434;5.984;2022-11-15T00:32:53;32.40;31.41;33.58;;
69619;Laerm;57653;51.434;5.984;2022-11-15T00:33:04;32.43;31.36;33.42;;
69619;Laerm;57653;51.434;5.984;2022-11-15T00:33:15;32.42;31.18;33.74;;
69619;Laerm;57653;51.434;5.984;2022-11-15T00:33:25;32.42;31.02;33.26;;
69619;Laerm;57653;51.434;5.984;2022-11-15T00:33:35;32.43;31.55;33.44;;
69619;Laerm;57653;51.434;5.984;2022-11-15T00:33:46;32.38;31.57;33.31;;
69619;Laerm;57653;51.434;5.984;2022-11-15T00:33:56;32.43;31.27;33.67;;
69619;Laerm;57653;51.434;5.984;2022-11-15T00:34:06;32.39;31.31;33.53;;
69619;Laerm;57653;51.434;5.984;2022-11-15T00:34:16;32.36;31.36;33.38;;
69619;Laerm;57653;51.434;5.984;2022-11-15T00:34:27;32.44;31.38;33.31;;
69619;Laerm;57653;51.434;5.984;2022-11-15T00:34:37;32.38;31.11;33.41;;
69619;Laerm;57653;51.434;5.984;2022-11-15T00:34:47;32.43;31.25;33.48;;
69619;Laerm;57653;51.434;5.984;2022-11-15T00:34:58;32.46;31.38;33.77;;
69619;Laerm;57653;51.434;5.984;2022-11-15T00:35:08;32.51;31.70;33.76;;
69619;Laerm;57653;51.434;5.984;2022-11-15T00:35:18;32.93;31.69;36.57;;
69619;Laerm;57653;51.434;5.984;2022-11-15T00:35:31;33.09;31.45;34.78;;
69619;Laerm;57653;51.434;5.984;2022-11-15T00:35:41;32.73;31.50;34.81;;
69619;Laerm;57653;51.434;5.984;2022-11-15T00:35:51;32.77;31.67;33.99;;
69619;Laerm;57653;51.434;5.984;2022-11-15T00:36:02;32.65;31.57;33.96;;
69619;Laerm;57653;51.434;5.984;2022-11-15T00:36:14;32.65;31.27;33.59;;
69619;Laerm;57653;51.434;5.984;2022-11-15T00:36:24;32.57;31.67;33.46;;
69619;Laerm;57653;51.434;5.984;2022-11-15T00:36:34;32.63;31.64;33.45;;
69619;Laerm;57653;51.434;5.984;2022-11-15T00:36:45;32.72;31.40;34.17;;
69619;Laerm;57653;51.434;5.984;2022-11-15T00:36:55;32.66;31.21;33.69;;
69619;Laerm;57653;51.434;5.984;2022-11-15T00:37:05;32.54;31.44;33.43;;
69619;Laerm;57653;51.434;5.984;2022-11-15T00:37:16;32.52;31.44;33.41;;
69619;Laerm;57653;51.434;5.984;2022-11-15T00:37:26;32.43;31.51;33.40;;
69619;Laerm;57653;51.434;5.984;2022-11-15T00:37:36;32.42;31.54;33.54;;
69619;Laerm;57653;51.434;5.984;2022-11-15T00:37:47;32.46;31.47;33.30;;
69619;Laerm;57653;51.434;5.984;2022-11-15T00:37:57;32.43;31.11;33.54;;
69619;Laerm;57653;51.434;5.984;2022-11-15T00:38:08;32.41;31.01;33.38;;
69619;Laerm;57653;51.434;5.984;2022-11-15T00:38:18;32.47;31.64;33.54;;
69619;Laerm;57653;51.434;5.984;2022-11-15T00:38:32;32.48;31.45;33.46;;
69619;Laerm;57653;51.434;5.984;2022-11-15T00:38:42;32.54;31.60;33.73;;
69619;Laerm;57653;51.434;5.984;2022-11-15T00:38:53;32.49;31.49;33.43;;
69619;Laerm;57653;51.434;5.984;2022-11-15T00:39:04;32.54;31.45;33.76;;
69619;Laerm;57653;51.434;5.984;2022-11-15T00:39:15;32.49;31.38;33.54;;
69619;Laerm;57653;51.434;5.984;2022-11-15T00:39:25;32.52;31.52;33.45;;
69619;Laerm;57653;51.434;5.984;2022-11-15T00:39:36;32.51;31.38;33.64;;
69619;Laerm;57653;51.434;5.984;2022-11-15T00:39:46;32.51;31.46;33.43;;
69619;Laerm;57653;51.434;5.984;2022-11-15T00:39:56;32.47;31.54;33.58;;
69619;Laerm;57653;51.434;5.984;2022-11-15T00:40:07;32.47;31.47;33.53;;
69619;Laerm;57653;51.434;5.984;2022-11-15T00:40:17;32.52;31.50;33.67;;
69619;Laerm;57653;51.434;5.984;2022-11-15T00:40:28;32.46;31.53;33.68;;
69619;Laerm;57653;51.434;5.984;2022-11-15T00:40:38;32.45;31.28;33.37;;
69619;Laerm;57653;51.434;5.984;2022-11-15T00:40:48;32.41;31.31;33.56;;
69619;Laerm;57653;51.434;5.984;2022-11-15T00:40:59;32.44;31.37;33.44;;
69619;Laerm;57653;51.434;5.984;2022-11-15T00:41:10;32.44;31.49;33.33;;
69619;Laerm;57653;51.434;5.984;2022-11-15T00:41:20;32.47;31.52;33.50;;
69619;Laerm;57653;51.434;5.984;2022-11-15T00:41:30;32.45;31.23;33.58;;
69619;Laerm;57653;51.434;5.984;2022-11-15T00:41:41;32.68;31.42;38.23;;
69619;Laerm;57653;51.434;5.984;2022-11-15T00:41:51;32.46;31.47;33.51;;
69619;Laerm;57653;51.434;5.984;2022-11-15T00:42:01;32.45;31.42;33.45;;
69619;Laerm;57653;51.434;5.984;2022-11-15T00:42:11;32.43;31.30;33.38;;
69619;Laerm;57653;51.434;5.984;2022-11-15T00:42:22;32.40;31.38;33.35;;
69619;Laerm;57653;51.434;5.984;2022-11-15T00:42:32;32.47;31.39;33.50;;
69619;Laerm;57653;51.434;5.984;2022-11-15T00:42:42;32.47;31.43;33.35;;
69619;Laerm;57653;51.434;5.984;2022-11-15T00:42:52;32.50;31.23;33.52;;
69619;Laerm;57653;51.434;5.984;2022-11-15T00:43:03;32.44;31.32;33.41;;
69619;Laerm;57653;51.434;5.984;2022-11-15T00:43:13;32.40;31.45;33.49;;
69619;Laerm;57653;51.434;5.984;2022-11-15T00:43:23;32.48;31.57;33.35;;
69619;Laerm;57653;51.434;5.984;2022-11-15T00:43:34;32.45;31.36;33.32;;
69619;Laerm;57653;51.434;5.984;2022-11-15T00:43:45;32.45;31.38;33.40;;
69619;Laerm;57653;51.434;5.984;2022-11-15T00:43:55;32.44;31.26;33.36;;
69619;Laerm;57653;51.434;5.984;2022-11-15T00:44:05;32.44;31.28;33.57;;
69619;Laerm;57653;51.434;5.984;2022-11-15T00:44:15;32.39;31.35;33.42;;
69619;Laerm;57653;51.434;5.984;2022-11-15T00:44:26;32.42;31.22;33.44;;
69619;Laerm;57653;51.434;5.984;2022-11-15T00:44:36;32.45;31.48;33.95;;
69619;Laerm;57653;51.434;5.984;2022-11-15T00:44:46;32.43;31.35;33.33;;
69619;Laerm;57653;51.434;5.984;2022-11-15T00:44:56;32.41;31.20;33.56;;
69619;Laerm;57653;51.434;5.984;2022-11-15T00:45:07;32.45;31.48;33.34;;
69619;Laerm;57653;51.434;5.984;2022-11-15T00:45:17;32.44;31.27;33.45;;
69619;Laerm;57653;51.434;5.984;2022-11-15T00:45:28;32.43;31.38;33.42;;
69619;Laerm;57653;51.434;5.984;2022-11-15T00:45:38;32.47;31.49;33.46;;
69619;Laerm;57653;51.434;5.984;2022-11-15T00:45:48;32.43;31.33;33.52;;
69619;Laerm;57653;51.434;5.984;2022-11-15T00:45:58;32.45;31.37;33.66;;
69619;Laerm;57653;51.434;5.984;2022-11-15T00:46:09;32.46;31.34;33.46;;
69619;Laerm;57653;51.434;5.984;2022-11-15T00:46:19;32.41;31.15;33.32;;
69619;Laerm;57653;51.434;5.984;2022-11-15T00:46:31;32.45;31.51;33.47;;
69619;Laerm;57653;51.434;5.984;2022-11-15T00:46:41;32.44;31.28;33.59;;
69619;Laerm;57653;51.434;5.984;2022-11-15T00:46:51;32.38;31.36;33.18;;
69619;Laerm;57653;51.434;5.984;2022-11-15T00:47:02;32.40;31.27;33.37;;
69619;Laerm;57653;51.434;5.984;2022-11-15T00:47:13;32.40;31.17;33.40;;
69619;Laerm;57653;51.434;5.984;2022-11-15T00:47:23;32.41;31.30;33.48;;
69619;Laerm;57653;51.434;5.984;2022-11-15T00:47:33;32.41;31.32;33.23;;
69619;Laerm;57653;51.434;5.984;2022-11-15T00:47:44;32.42;31.38;33.32;;
69619;Laerm;57653;51.434;5.984;2022-11-15T00:47:55;32.40;31.41;33.35;;
69619;Laerm;57653;51.434;5.984;2022-11-15T00:48:05;32.42;31.44;33.62;;
69619;Laerm;57653;51.434;5.984;2022-11-15T00:48:16;32.39;31.51;33.43;;
69619;Laerm;57653;51.434;5.984;2022-11-15T00:48:26;32.44;31.31;33.37;;
69619;Laerm;57653;51.434;5.984;2022-11-15T00:48:36;32.40;31.54;33.39;;
69619;Laerm;57653;51.434;5.984;2022-11-15T00:48:47;32.48;31.56;33.53;;
69619;Laerm;57653;51.434;5.984;2022-11-15T00:48:57;32.56;31.37;33.36;;
69619;Laerm;57653;51.434;5.984;2022-11-15T00:49:07;32.53;31.50;33.51;;
69619;Laerm;57653;51.434;5.984;2022-11-15T00:49:18;32.51;31.36;33.71;;
69619;Laerm;57653;51.434;5.984;2022-11-15T00:49:28;32.51;31.49;33.46;;
69619;Laerm;57653;51.434;5.984;2022-11-15T00:49:38;32.50;31.22;33.52;;
69619;Laerm;57653;51.434;5.984;2022-11-15T00:49:48;32.62;31.49;33.66;;
69619;Laerm;57653;51.434;5.984;2022-11-15T00:49:59;32.75;31.67;34.35;;
69619;Laerm;57653;51.434;5.984;2022-11-15T00:50:09;33.34;31.60;35.13;;
69619;Laerm;57653;51.434;5.984;2022-11-15T00:50:19;34.42;32.31;40.88;;
69619;Laerm;57653;51.434;5.984;2022-11-15T00:50:29;32.64;31.21;33.81;;
69619;Laerm;57653;51.434;5.984;2022-11-15T00:50:40;32.53;31.52;33.43;;
69619;Laerm;57653;51.434;5.984;2022-11-15T00:50:50;32.50;31.35;33.61;;
69619;Laerm;57653;51.434;5.984;2022-11-15T00:51:00;32.55;31.40;33.53;;
69619;Laerm;57653;51.434;5.984;2022-11-15T00:51:11;32.76;31.69;33.72;;
69619;Laerm;57653;51.434;5.984;2022-11-15T00:51:21;32.80;31.76;33.87;;
69619;Laerm;57653;51.434;5.984;2022-11-15T00:51:31;32.70;31.17;33.62;;
69619;Laerm;57653;51.434;5.984;2022-11-15T00:51:41;32.76;31.85;33.71;;
69619;Laerm;57653;51.434;5.984;2022-11-15T00:51:52;33.28;31.71;34.59;;
69619;Laerm;57653;51.434;5.984;2022-11-15T00:52:02;33.47;32.23;34.90;;
69619;Laerm;57653;51.434;5.984;2022-11-15T00:52:12;33.23;31.94;34.41;;
69619;Laerm;57653;51.434;5.984;2022-11-15T00:52:22;33.15;31.94;34.37;;
69619;Laerm;57653;51.434;5.984;2022-11-15T00:52:33;32.76;31.81;33.71;;
69619;Laerm;57653;51.434;5.984;2022-11-15T00:52:43;32.76;31.45;33.91;;
69619;Laerm;57653;51.434;5.984;2022-11-15T00:52:53;32.77;31.67;33.65;;
69619;Laerm;57653;51.434;5.984;2022-11-15T00:53:04;33.48;32.18;36.46;;
69619;Laerm;57653;51.434;5.984;2022-11-15T00:53:14;52.55;35.53;60.32;;
69619;Laerm;57653;51.434;5.984;2022-11-15T00:53:25;61.50;57.76;64.84;;
69619;Laerm;57653;51.434;5.984;2022-11-15T00:53:36;60.33;55.72;64.88;;
69619;Laerm;57653;51.434;5.984;2022-11-15T00:53:46;49.64;34.11;56.69;;
69619;Laerm;57653;51.434;5.984;2022-11-15T00:53:56;34.51;32.34;37.35;;
69619;Laerm;57653;51.434;5.984;2022-11-15T00:54:07;33.27;32.25;34.93;;
69619;Laerm;57653;51.434;5.984;2022-11-15T00:54:17;32.81;31.75;33.86;;
69619;Laerm;57653;51.434;5.984;2022-11-15T00:54:27;32.64;31.45;33.73;;
69619;Laerm;57653;51.434;5.984;2022-11-15T00:54:37;32.56;31.27;33.60;;
69619;Laerm;57653;51.434;5.984;2022-11-15T00:54:48;32.63;31.53;33.71;;
69619;Laerm;57653;51.434;5.984;2022-11-15T00:54:58;32.58;31.32;33.59;;
69619;Laerm;57653;51.434;5.984;2022-11-15T00:55:17;32.49;31.07;33.49;;
69619;Laerm;57653;51.434;5.984;2022-11-15T00:55:28;32.49;31.53;33.64;;
69619;Laerm;57653;51.434;5.984;2022-11-15T00:55:38;32.57;31.41;33.88;;
69619;Laerm;57653;51.434;5.984;2022-11-15T00:55:49;32.65;31.64;33.52;;
69619;Laerm;57653;51.434;5.984;2022-11-15T00:55:59;32.73;31.37;33.77;;
69619;Laerm;57653;51.434;5.984;2022-11-15T00:56:09;33.23;31.83;35.02;;
69619;Laerm;57653;51.434;5.984;2022-11-15T00:56:19;32.75;31.67;34.94;;
69619;Laerm;57653;51.434;5.984;2022-11-15T00:56:30;32.48;31.58;33.32;;
69619;Laerm;57653;51.434;5.984;2022-11-15T00:56:40;32.58;31.34;33.62;;
69619;Laerm;57653;51.434;5.984;2022-11-15T00:56:50;32.47;31.38;33.54;;
69619;Laerm;57653;51.434;5.984;2022-11-15T00:57:01;32.48;31.61;33.90;;
69619;Laerm;57653;51.434;5.984;2022-11-15T00:57:11;32.51;31.36;33.55;;
69619;Laerm;57653;51.434;5.984;2022-11-15T00:57:21;32.62;31.58;33.70;;
69619;Laerm;57653;51.434;5.984;2022-11-15T00:57:31;32.61;31.59;33.91;;
69619;Laerm;57653;51.434;5.984;2022-11-15T00:57:42;32.42;31.46;33.25;;
69619;Laerm;57653;51.434;5.984;2022-11-15T00:57:52;32.45;31.45;33.35;;
69619;Laerm;57653;51.434;5.984;2022-11-15T00:58:02;32.43;31.43;33.55;;
69619;Laerm;57653;51.434;5.984;2022-11-15T00:58:12;32.37;31.30;33.20;;
69619;Laerm;57653;51.434;5.984;2022-11-15T00:58:23;32.42;31.49;33.59;;
69619;Laerm;57653;51.434;5.984;2022-11-15T00:58:33;32.39;31.29;33.23;;
69619;Laerm;57653;51.434;5.984;2022-11-15T00:58:43;32.43;31.22;33.37;;
69619;Laerm;57653;51.434;5.984;2022-11-15T00:58:53;32.45;31.24;33.55;;
69619;Laerm;57653;51.434;5.984;2022-11-15T00:59:04;32.42;31.21;33.50;;
69619;Laerm;57653;51.434;5.984;2022-11-15T00:59:14;32.42;31.41;33.30;;
69619;Laerm;57653;51.434;5.984;2022-11-15T00:59:24;32.56;31.15;33.73;;